createdAt,value
2024-03-23T00:00:23.465Z,94319.00
2024-03-23T00:01:23.433Z,94320.00
2024-03-23T00:02:23.516Z,94319.00
2024-03-23T00:03:23.524Z,94318.00
2024-03-23T00:04:23.572Z,94318.00
2024-03-23T00:05:23.625Z,94316.00
2024-03-23T00:06:23.683Z,94312.00
2024-03-23T00:07:23.725Z,94313.00
2024-03-23T00:08:23.779Z,94312.00
2024-03-23T00:09:23.896Z,94313.00
2024-03-23T00:10:23.866Z,94311.00
2024-03-23T00:11:23.910Z,94311.00
2024-03-23T00:12:23.999Z,94307.00
2024-03-23T00:13:24.009Z,94304.00
2024-03-23T00:14:24.055Z,94303.00
2024-03-23T00:15:24.122Z,94303.00
2024-03-23T00:16:24.150Z,94300.00
2024-03-23T00:17:24.195Z,94299.00
2024-03-23T00:18:24.269Z,94298.00
2024-03-23T00:19:24.325Z,94294.00
2024-03-23T00:20:24.350Z,94294.00
2024-03-23T00:21:24.439Z,94293.00
2024-03-23T00:22:24.451Z,94292.00
2024-03-23T00:23:24.525Z,94293.00
2024-03-23T00:24:24.574Z,94293.00
2024-03-23T00:25:24.622Z,94293.00
2024-03-23T00:26:24.645Z,94292.00
2024-03-23T00:27:24.738Z,94290.00
2024-03-23T00:28:24.750Z,94289.00
2024-03-23T00:29:24.823Z,94286.00
2024-03-23T00:30:24.894Z,94286.00
2024-03-23T00:31:24.921Z,94285.00
2024-03-23T00:32:24.973Z,94287.00
2024-03-23T00:33:25.038Z,94285.00
2024-03-23T00:34:25.088Z,94286.00
2024-03-23T00:35:25.127Z,94284.00
2024-03-23T00:36:25.205Z,94283.00
2024-03-23T00:37:25.237Z,94285.00
2024-03-23T00:38:25.349Z,94283.00
2024-03-23T00:39:25.367Z,94283.00
2024-03-23T00:40:25.425Z,94285.00
2024-03-23T00:41:25.458Z,94284.00
2024-03-23T00:42:25.525Z,94287.00
2024-03-23T00:43:25.565Z,94287.00
2024-03-23T00:44:25.624Z,94286.00
2024-03-23T00:45:25.660Z,94284.00
2024-03-23T00:46:25.756Z,94283.00
2024-03-23T00:47:25.795Z,94282.00
2024-03-23T00:48:25.816Z,94284.00
2024-03-23T00:49:25.879Z,94283.00
2024-03-23T00:50:25.915Z,94283.00
2024-03-23T00:51:25.963Z,94284.00
2024-03-23T00:52:26.056Z,94280.00
2024-03-23T00:53:26.063Z,94277.00
2024-03-23T00:54:26.116Z,94278.00
2024-03-23T00:55:26.163Z,94279.00
2024-03-23T00:56:26.226Z,94279.00
2024-03-23T00:57:26.285Z,94281.00
2024-03-23T00:58:26.318Z,94280.00
2024-03-23T00:59:26.377Z,94279.00
2024-03-23T01:00:26.436Z,94278.00
2024-03-23T01:01:26.502Z,94275.00
2024-03-23T01:02:26.541Z,94272.00
2024-03-23T01:03:26.611Z,94270.00
2024-03-23T01:04:26.647Z,94275.00
2024-03-23T01:05:26.692Z,94271.00
2024-03-23T01:06:26.743Z,94270.00
2024-03-23T01:07:26.829Z,94270.00
2024-03-23T01:08:26.844Z,94267.00
2024-03-23T01:09:26.906Z,94266.00
2024-03-23T01:10:26.944Z,94264.00
2024-03-23T01:11:27.005Z,94263.00
2024-03-23T01:12:27.060Z,94262.00
2024-03-23T01:13:27.106Z,94259.00
2024-03-23T01:14:27.169Z,94261.00
2024-03-23T01:15:27.246Z,94261.00
2024-03-23T01:16:27.299Z,94259.00
2024-03-23T01:17:27.384Z,94259.00
2024-03-23T01:18:27.392Z,94257.00
2024-03-23T01:19:27.466Z,94256.00
2024-03-23T01:20:27.558Z,94253.00
2024-03-23T01:21:27.599Z,94252.00
2024-03-23T01:22:27.671Z,94250.00
2024-03-23T01:23:27.726Z,94248.00
2024-03-23T01:24:27.768Z,94248.00
2024-03-23T01:25:27.830Z,94247.00
2024-03-23T01:26:27.890Z,94248.00
2024-03-23T01:27:27.947Z,94249.00
2024-03-23T01:28:28.005Z,94249.00
2024-03-23T01:29:28.080Z,94250.00
2024-03-23T01:30:28.150Z,94249.00
2024-03-23T01:31:28.170Z,94249.00
2024-03-23T01:32:28.258Z,94248.00
2024-03-23T01:33:28.289Z,94248.00
2024-03-23T01:34:28.358Z,94247.00
2024-03-23T01:35:28.410Z,94243.00
2024-03-23T01:36:28.477Z,94240.00
2024-03-23T01:37:28.522Z,94240.00
2024-03-23T01:38:28.583Z,94233.00
2024-03-23T01:39:28.656Z,94234.00
2024-03-23T01:40:28.784Z,94234.00
2024-03-23T01:41:28.759Z,94235.00
2024-03-23T01:42:28.849Z,94235.00
2024-03-23T01:43:28.903Z,94234.00
2024-03-23T01:44:28.958Z,94232.00
2024-03-23T01:45:29.031Z,94230.00
2024-03-23T01:46:29.096Z,94232.00
2024-03-23T01:47:29.143Z,94232.00
2024-03-23T01:48:29.182Z,94229.00
2024-03-23T01:49:29.261Z,94229.00
2024-03-23T01:50:29.319Z,94227.00
2024-03-23T01:51:29.395Z,94224.00
2024-03-23T01:52:29.454Z,94226.00
2024-03-23T01:53:29.516Z,94223.00
2024-03-23T01:54:29.580Z,94222.00
2024-03-23T01:55:29.643Z,94219.00
2024-03-23T01:56:29.710Z,94218.00
2024-03-23T01:57:29.761Z,94218.00
2024-03-23T01:58:29.844Z,94213.00
2024-03-23T01:59:29.898Z,94208.00
2024-03-23T02:00:29.952Z,94208.00
2024-03-23T02:01:30.019Z,94206.00
2024-03-23T02:02:30.075Z,94203.00
2024-03-23T02:03:30.144Z,94201.00
2024-03-23T02:04:30.226Z,94204.00
2024-03-23T02:05:30.267Z,94201.00
2024-03-23T02:06:30.361Z,94199.00
2024-03-23T02:07:30.412Z,94199.00
2024-03-23T02:08:30.466Z,94202.00
2024-03-23T02:09:30.534Z,94200.00
2024-03-23T02:10:30.619Z,94200.00
2024-03-23T02:11:30.683Z,94202.00
2024-03-23T02:12:30.736Z,94201.00
2024-03-23T02:13:30.829Z,94205.00
2024-03-23T02:14:30.867Z,94210.00
2024-03-23T02:15:30.970Z,94213.00
2024-03-23T02:16:31.043Z,94214.00
2024-03-23T02:17:31.076Z,94212.00
2024-03-23T02:18:31.145Z,94213.00
2024-03-23T02:19:31.229Z,94215.00
2024-03-23T02:20:31.305Z,94209.00
2024-03-23T02:21:31.356Z,94212.00
2024-03-23T02:22:31.440Z,94213.00
2024-03-23T02:23:31.522Z,94214.00
2024-03-23T02:24:31.566Z,94209.00
2024-03-23T02:25:31.648Z,94206.00
2024-03-23T02:26:31.741Z,94206.00
2024-03-23T02:27:31.771Z,94205.00
2024-03-23T02:28:31.873Z,94206.00
2024-03-23T02:29:31.935Z,94203.00
2024-03-23T02:30:31.982Z,94204.00
2024-03-23T02:31:32.089Z,94201.00
2024-03-23T02:32:32.130Z,94200.00
2024-03-23T02:33:32.219Z,94203.00
2024-03-23T02:34:32.285Z,94200.00
2024-03-23T02:35:32.333Z,94198.00
2024-03-23T02:36:32.428Z,94195.00
2024-03-23T02:37:32.482Z,94195.00
2024-03-23T02:38:32.576Z,94195.00
2024-03-23T02:39:32.653Z,94196.00
2024-03-23T02:40:32.713Z,94196.00
2024-03-23T02:41:32.767Z,94191.00
2024-03-23T02:42:32.844Z,94191.00
2024-03-23T02:43:32.939Z,94190.00
2024-03-23T02:44:32.993Z,94189.00
2024-03-23T02:45:33.040Z,94187.00
2024-03-23T02:46:33.102Z,94186.00
2024-03-23T02:47:33.169Z,94186.00
2024-03-23T02:48:33.250Z,94187.00
2024-03-23T02:49:33.322Z,94185.00
2024-03-23T02:50:33.349Z,94182.00
2024-03-23T02:51:33.430Z,94180.00
2024-03-23T02:52:33.510Z,94177.00
2024-03-23T02:53:33.544Z,94177.00
2024-03-23T02:54:33.617Z,94176.00
2024-03-23T02:55:33.680Z,94176.00
2024-03-23T02:56:33.749Z,94175.00
2024-03-23T02:57:33.799Z,94175.00
2024-03-23T02:58:33.876Z,94177.00
2024-03-23T02:59:33.940Z,94177.00
2024-03-23T03:00:34.028Z,94176.00
2024-03-23T03:01:34.085Z,94174.00
2024-03-23T03:02:34.148Z,94176.00
2024-03-23T03:03:34.219Z,94175.00
2024-03-23T03:04:34.301Z,94175.00
2024-03-23T03:05:34.358Z,94175.00
2024-03-23T03:06:34.430Z,94175.00
2024-03-23T03:07:34.501Z,94170.00
2024-03-23T03:08:34.568Z,94172.00
2024-03-23T03:09:34.644Z,94169.00
2024-03-23T03:10:34.749Z,94168.00
2024-03-23T03:11:34.769Z,94168.00
2024-03-23T03:12:34.846Z,94166.00
2024-03-23T03:13:34.918Z,94165.00
2024-03-23T03:14:34.988Z,94163.00
2024-03-23T03:15:35.049Z,94161.00
2024-03-23T03:16:35.101Z,94162.00
2024-03-23T03:17:35.171Z,94160.00
2024-03-23T03:18:35.232Z,94160.00
2024-03-23T03:19:35.320Z,94158.00
2024-03-23T03:20:35.370Z,94158.00
2024-03-23T03:21:35.474Z,94159.00
2024-03-23T03:22:35.521Z,94158.00
2024-03-23T03:23:35.590Z,94157.00
2024-03-23T03:24:35.699Z,94156.00
2024-03-23T03:25:35.751Z,94157.00
2024-03-23T03:26:35.814Z,94156.00
2024-03-23T03:27:35.883Z,94156.00
2024-03-23T03:28:35.941Z,94158.00
2024-03-23T03:29:36.012Z,94156.00
2024-03-23T03:30:36.080Z,94157.00
2024-03-23T03:31:36.147Z,94160.00
2024-03-23T03:32:36.220Z,94156.00
2024-03-23T03:33:36.288Z,94158.00
2024-03-23T03:34:36.377Z,94157.00
2024-03-23T03:35:36.425Z,94155.00
2024-03-23T03:36:36.498Z,94156.00
2024-03-23T03:37:36.593Z,94158.00
2024-03-23T03:38:36.639Z,94158.00
2024-03-23T03:39:36.734Z,94156.00
2024-03-23T03:40:36.813Z,94157.00
2024-03-23T03:41:36.870Z,94155.00
2024-03-23T03:42:36.918Z,94156.00
2024-03-23T03:43:36.990Z,94154.00
2024-03-23T03:44:37.089Z,94152.00
2024-03-23T03:45:37.143Z,94153.00
2024-03-23T03:46:37.228Z,94153.00
2024-03-23T03:47:37.292Z,94150.00
2024-03-23T03:48:37.376Z,94149.00
2024-03-23T03:49:37.430Z,94146.00
2024-03-23T03:50:37.517Z,94147.00
2024-03-23T03:51:37.571Z,94146.00
2024-03-23T03:52:37.643Z,94143.00
2024-03-23T03:53:37.732Z,94144.00
2024-03-23T03:54:37.810Z,94143.00
2024-03-23T03:55:37.862Z,94141.00
2024-03-23T03:56:37.921Z,94141.00
2024-03-23T03:57:37.973Z,94140.00
2024-03-23T03:58:38.030Z,94139.00
2024-03-23T03:59:38.106Z,94137.00
2024-03-23T04:00:38.168Z,94137.00
2024-03-23T04:01:38.236Z,94135.00
2024-03-23T04:02:38.305Z,94134.00
2024-03-23T04:03:38.367Z,94135.00
2024-03-23T04:04:38.419Z,94133.00
2024-03-23T04:05:38.474Z,94134.00
2024-03-23T04:06:38.531Z,94130.00
2024-03-23T04:07:38.582Z,94131.00
2024-03-23T04:08:38.631Z,94130.00
2024-03-23T04:09:38.692Z,94130.00
2024-03-23T04:10:38.788Z,94130.00
2024-03-23T04:11:38.788Z,94129.00
2024-03-23T04:12:38.862Z,94129.00
2024-03-23T04:13:38.912Z,94126.00
2024-03-23T04:14:38.990Z,94126.00
2024-03-23T04:15:39.070Z,94123.00
2024-03-23T04:16:39.078Z,94126.00
2024-03-23T04:17:39.150Z,94124.00
2024-03-23T04:18:39.212Z,94123.00
2024-03-23T04:19:39.284Z,94123.00
2024-03-23T04:20:39.310Z,94123.00
2024-03-23T04:21:39.348Z,94124.00
2024-03-23T04:22:39.416Z,94125.00
2024-03-23T04:23:39.471Z,94126.00
2024-03-23T04:24:46.648Z,94127.00
2024-03-23T04:25:46.629Z,94126.00
2024-03-23T04:26:46.633Z,94127.00
2024-03-23T04:27:46.653Z,94127.00
2024-03-23T04:28:46.655Z,94126.00
2024-03-23T04:29:46.645Z,94126.00
2024-03-23T04:30:46.663Z,94127.00
2024-03-23T04:31:53.840Z,94124.00
2024-03-23T04:32:53.838Z,94124.00
2024-03-23T04:33:53.842Z,94125.00
2024-03-23T04:34:53.869Z,94126.00
2024-03-23T04:35:53.841Z,94124.00
2024-03-23T04:36:53.843Z,94123.00
2024-03-23T04:37:53.866Z,94123.00
2024-03-23T04:38:53.851Z,94121.00
2024-03-23T04:39:53.976Z,94122.00
2024-03-23T04:40:53.859Z,94122.00
2024-03-23T04:41:53.868Z,94124.00
2024-03-23T04:42:53.848Z,94122.00
2024-03-23T04:43:53.961Z,94122.00
2024-03-23T04:44:53.953Z,94120.00
2024-03-23T04:45:53.863Z,94117.00
2024-03-23T04:46:53.875Z,94117.00
2024-03-23T04:47:53.852Z,94117.00
2024-03-23T04:48:53.898Z,94114.00
2024-03-23T04:49:53.864Z,94112.00
2024-03-23T04:50:53.883Z,94112.00
2024-03-23T04:51:53.858Z,94111.00
2024-03-23T04:52:53.875Z,94109.00
2024-03-23T04:53:53.912Z,94107.00
2024-03-23T04:54:53.959Z,94106.00
2024-03-23T04:55:54.003Z,94104.00
2024-03-23T04:56:54.041Z,94101.00
2024-03-23T04:57:54.042Z,94102.00
2024-03-23T04:58:54.093Z,94098.00
2024-03-23T04:59:54.148Z,94096.00
2024-03-23T05:00:54.161Z,94093.00
2024-03-23T05:01:54.194Z,94090.00
2024-03-23T05:02:54.246Z,94089.00
2024-03-23T05:03:54.235Z,94092.00
2024-03-23T05:04:54.288Z,94092.00
2024-03-23T05:05:54.310Z,94093.00
2024-03-23T05:06:54.359Z,94089.00
2024-03-23T05:07:54.404Z,94085.00
2024-03-23T05:08:54.454Z,94087.00
2024-03-23T05:09:54.512Z,94084.00
2024-03-23T05:10:54.560Z,94086.00
2024-03-23T05:11:54.613Z,94086.00
2024-03-23T05:12:54.656Z,94084.00
2024-03-23T05:13:54.702Z,94083.00
2024-03-23T05:14:54.713Z,94084.00
2024-03-23T05:15:54.756Z,94084.00
2024-03-23T05:16:54.868Z,94080.00
2024-03-23T05:17:54.886Z,94080.00
2024-03-23T05:18:54.959Z,94078.00
2024-03-23T05:19:55.850Z,94076.00
2024-03-23T05:20:55.104Z,94074.00
2024-03-23T05:21:55.162Z,94071.00
2024-03-23T05:22:55.233Z,94071.00
2024-03-23T05:23:55.295Z,94071.00
2024-03-23T05:24:55.364Z,94075.00
2024-03-23T05:25:55.409Z,94077.00
2024-03-23T05:26:55.429Z,94076.00
2024-03-23T05:27:55.478Z,94076.00
2024-03-23T05:28:55.540Z,94076.00
2024-03-23T05:29:55.589Z,94073.00
2024-03-23T05:30:55.649Z,94069.00
2024-03-23T05:31:55.708Z,94067.00
2024-03-23T05:32:55.811Z,94063.00
2024-03-23T05:33:55.899Z,94065.00
2024-03-23T05:34:55.874Z,94066.00
2024-03-23T05:35:55.919Z,94066.00
2024-03-23T05:36:55.925Z,94065.00
2024-03-23T05:37:55.982Z,94065.00
2024-03-23T05:38:56.016Z,94064.00
2024-03-23T05:39:56.045Z,94062.00
2024-03-23T05:40:56.077Z,94063.00
2024-03-23T05:41:56.119Z,94064.00
2024-03-23T05:42:56.162Z,94065.00
2024-03-23T05:43:56.236Z,94066.00
2024-03-23T05:44:56.249Z,94065.00
2024-03-23T05:45:56.281Z,94066.00
2024-03-23T05:46:56.326Z,94067.00
2024-03-23T05:47:56.359Z,94066.00
2024-03-23T05:48:56.394Z,94065.00
2024-03-23T05:49:56.564Z,94064.00
2024-03-23T05:50:56.463Z,94065.00
2024-03-23T05:51:56.506Z,94066.00
2024-03-23T05:52:56.522Z,94061.00
2024-03-23T05:53:56.548Z,94059.00
2024-03-23T05:54:56.595Z,94054.00
2024-03-23T05:55:56.606Z,94051.00
2024-03-23T05:56:56.618Z,94049.00
2024-03-23T05:57:56.641Z,94046.00
2024-03-23T05:58:56.665Z,94045.00
2024-03-23T05:59:56.686Z,94048.00
2024-03-23T06:00:56.672Z,94053.00
2024-03-23T06:01:56.688Z,94051.00
2024-03-23T06:02:56.736Z,94047.00
2024-03-23T06:03:56.808Z,94039.00
2024-03-23T06:04:56.834Z,94035.00
2024-03-23T06:05:56.860Z,94028.00
2024-03-23T06:06:56.868Z,94028.00
2024-03-23T06:07:59.603Z,94030.00
2024-03-23T06:08:56.895Z,94032.00
2024-03-23T06:09:56.901Z,94037.00
2024-03-23T06:10:56.914Z,94035.00
2024-03-23T06:11:56.922Z,94031.00
2024-03-23T06:12:56.888Z,94036.00
2024-03-23T06:13:56.912Z,94038.00
2024-03-23T06:14:56.910Z,94045.00
2024-03-23T06:15:56.894Z,94048.00
2024-03-23T06:16:56.882Z,94045.00
2024-03-23T06:17:56.899Z,94049.00
2024-03-23T06:18:56.899Z,94044.00
2024-03-23T06:19:56.912Z,94041.00
2024-03-23T06:20:56.906Z,94043.00
2024-03-23T06:21:56.898Z,94038.00
2024-03-23T06:22:56.905Z,94035.00
2024-03-23T06:23:57.003Z,94031.00
2024-03-23T06:24:56.909Z,94031.00
2024-03-23T06:25:56.930Z,94026.00
2024-03-23T06:26:56.929Z,94025.00
2024-03-23T06:27:56.926Z,94014.00
2024-03-23T06:28:56.947Z,94011.00
2024-03-23T06:29:56.940Z,94011.00
2024-03-23T06:30:56.920Z,94010.00
2024-03-23T06:31:56.939Z,94009.00
2024-03-23T06:32:56.932Z,94005.00
2024-03-23T06:33:56.935Z,94005.00
2024-03-23T06:34:56.936Z,94001.00
2024-03-23T06:35:57.007Z,94001.00
2024-03-23T06:36:56.937Z,93999.00
2024-03-23T06:37:56.988Z,93998.00
2024-03-23T06:38:57.022Z,93998.00
2024-03-23T06:39:57.079Z,93996.00
2024-03-23T06:40:57.119Z,93994.00
2024-03-23T06:41:57.165Z,93991.00
2024-03-23T06:42:57.165Z,93987.00
2024-03-23T06:43:57.523Z,93986.00
2024-03-23T06:44:57.195Z,93984.00
2024-03-23T06:45:57.202Z,93985.00
2024-03-23T06:46:57.233Z,93985.00
2024-03-23T06:47:57.283Z,93983.00
2024-03-23T06:48:57.303Z,93983.00
2024-03-23T06:49:57.368Z,93983.00
2024-03-23T06:50:57.388Z,93983.00
2024-03-23T06:51:57.447Z,93979.00
2024-03-23T06:52:57.487Z,93978.00
2024-03-23T06:53:57.561Z,93973.00
2024-03-23T06:54:57.622Z,93967.00
2024-03-23T06:55:57.638Z,93964.00
2024-03-23T06:56:57.700Z,93961.00
2024-03-23T06:57:57.772Z,93959.00
2024-03-23T06:58:57.843Z,93957.00
2024-03-23T06:59:57.903Z,93957.00
2024-03-23T07:00:57.942Z,93957.00
2024-03-23T07:01:58.015Z,93957.00
2024-03-23T07:02:58.083Z,93957.00
2024-03-23T07:03:58.184Z,93955.00
2024-03-23T07:04:58.220Z,93950.00
2024-03-23T07:05:58.286Z,93947.00
2024-03-23T07:06:58.316Z,93944.00
2024-03-23T07:07:58.380Z,93941.00
2024-03-23T07:08:58.407Z,93941.00
2024-03-23T07:09:58.433Z,93944.00
2024-03-23T07:10:58.472Z,93941.00
2024-03-23T07:11:58.486Z,93936.00
2024-03-23T07:12:58.490Z,93934.00
2024-03-23T07:13:58.485Z,93931.00
2024-03-23T07:14:58.505Z,93927.00
2024-03-23T07:15:58.513Z,93923.00
2024-03-23T07:16:58.528Z,93919.00
2024-03-23T07:17:58.517Z,93918.00
2024-03-23T07:18:58.518Z,93916.00
2024-03-23T07:19:58.535Z,93913.00
2024-03-23T07:20:58.525Z,93909.00
2024-03-23T07:21:58.531Z,93906.00
2024-03-23T07:22:58.550Z,93901.00
2024-03-23T07:23:58.564Z,93896.00
2024-03-23T07:24:58.533Z,93892.00
2024-03-23T07:25:58.559Z,93889.00
2024-03-23T07:26:58.565Z,93889.00
2024-03-23T07:28:00.510Z,93890.00
2024-03-23T07:28:58.612Z,93889.00
2024-03-23T07:29:58.573Z,93888.00
2024-03-23T07:30:58.569Z,93887.00
2024-03-23T07:31:58.593Z,93884.00
2024-03-23T07:32:58.576Z,93886.00
2024-03-23T07:33:58.579Z,93884.00
2024-03-23T07:34:58.578Z,93884.00
2024-03-23T07:35:58.579Z,93882.00
2024-03-23T07:36:58.579Z,93884.00
2024-03-23T07:37:58.580Z,93883.00
2024-03-23T07:39:07.605Z,93883.00
2024-03-23T07:39:59.600Z,93881.00
2024-03-23T07:40:58.585Z,93879.00
2024-03-23T07:41:58.604Z,93879.00
2024-03-23T07:42:58.593Z,93878.00
2024-03-23T07:43:58.628Z,93875.00
2024-03-23T07:44:58.622Z,93872.00
2024-03-23T07:45:58.600Z,93868.00
2024-03-23T07:46:58.603Z,93863.00
2024-03-23T07:47:58.595Z,93858.00
2024-03-23T07:48:58.629Z,93856.00
2024-03-23T07:49:58.609Z,93850.00
2024-03-23T07:50:58.599Z,93847.00
2024-03-23T07:51:58.623Z,93846.00
2024-03-23T07:52:58.613Z,93844.00
2024-03-23T07:53:58.618Z,93842.00
2024-03-23T07:54:58.618Z,93844.00
2024-03-23T07:55:58.631Z,93844.00
2024-03-23T07:56:58.613Z,93843.00
2024-03-23T07:57:58.618Z,93842.00
2024-03-23T07:58:58.621Z,93836.00
2024-03-23T07:59:58.623Z,93833.00
2024-03-23T08:00:58.644Z,93833.00
2024-03-23T08:02:00.420Z,93833.00
2024-03-23T08:02:58.625Z,93831.00
2024-03-23T08:03:58.654Z,93830.00
2024-03-23T08:04:58.662Z,93826.00
2024-03-23T08:05:58.653Z,93824.00
2024-03-23T08:06:58.639Z,93819.00
2024-03-23T08:07:58.645Z,93814.00
2024-03-23T08:08:58.638Z,93812.00
2024-03-23T08:09:58.662Z,93809.00
2024-03-23T08:10:58.647Z,93810.00
2024-03-23T08:11:58.639Z,93811.00
2024-03-23T08:12:58.644Z,93812.00
2024-03-23T08:13:58.626Z,93809.00
2024-03-23T08:14:58.639Z,93805.00
2024-03-23T08:15:58.627Z,93800.00
2024-03-23T08:16:58.630Z,93793.00
2024-03-23T08:17:58.636Z,93790.00
2024-03-23T08:18:58.632Z,93786.00
2024-03-23T08:19:58.637Z,93780.00
2024-03-23T08:20:58.650Z,93780.00
2024-03-23T08:21:58.638Z,93781.00
2024-03-23T08:22:58.638Z,93780.00
2024-03-23T08:23:58.641Z,93779.00
2024-03-23T08:24:58.664Z,93779.00
2024-03-23T08:25:58.645Z,93783.00
2024-03-23T08:26:58.662Z,93783.00
2024-03-23T08:27:58.648Z,93788.00
2024-03-23T08:28:58.674Z,93783.00
2024-03-23T08:29:58.707Z,93782.00
2024-03-23T08:30:58.726Z,93781.00
2024-03-23T08:31:58.756Z,93780.00
2024-03-23T08:32:58.779Z,93777.00
2024-03-23T08:33:58.803Z,93778.00
2024-03-23T08:34:58.864Z,93775.00
2024-03-23T08:35:58.876Z,93777.00
2024-03-23T08:36:58.905Z,93774.00
2024-03-23T08:37:58.950Z,93768.00
2024-03-23T08:38:58.982Z,93765.00
2024-03-23T08:39:59.012Z,93759.00
2024-03-23T08:40:59.091Z,93757.00
2024-03-23T08:41:59.089Z,93756.00
2024-03-23T08:42:59.133Z,93758.00
2024-03-23T08:43:59.175Z,93758.00
2024-03-23T08:44:59.249Z,93757.00
2024-03-23T08:45:59.265Z,93761.00
2024-03-23T08:46:59.304Z,93763.00
2024-03-23T08:47:59.352Z,93764.00
2024-03-23T08:48:59.394Z,93763.00
2024-03-23T08:49:59.443Z,93760.00
2024-03-23T08:50:59.493Z,93760.00
2024-03-23T08:51:59.543Z,93759.00
2024-03-23T08:52:59.625Z,93761.00
2024-03-23T08:53:59.726Z,93758.00
2024-03-23T08:54:59.815Z,93756.00
2024-03-23T08:55:59.766Z,93751.00
2024-03-23T08:56:59.793Z,93749.00
2024-03-23T08:57:59.826Z,93746.00
2024-03-23T08:58:59.873Z,93741.00
2024-03-23T08:59:59.939Z,93738.00
2024-03-23T09:00:59.983Z,93735.00
2024-03-23T09:02:00.079Z,93731.00
2024-03-23T09:03:00.114Z,93726.00
2024-03-23T09:04:00.173Z,93727.00
2024-03-23T09:05:00.247Z,93729.00
2024-03-23T09:06:00.276Z,93729.00
2024-03-23T09:07:00.365Z,93731.00
2024-03-23T09:08:00.408Z,93730.00
2024-03-23T09:09:00.464Z,93733.00
2024-03-23T09:10:00.515Z,93734.00
2024-03-23T09:11:00.547Z,93735.00
2024-03-23T09:12:00.605Z,93736.00
2024-03-23T09:13:00.667Z,93738.00
2024-03-23T09:14:00.719Z,93739.00
2024-03-23T09:15:00.798Z,93742.00
2024-03-23T09:16:00.862Z,93743.00
2024-03-23T09:17:00.930Z,93744.00
2024-03-23T09:18:00.971Z,93748.00
2024-03-23T09:19:01.023Z,93742.00
2024-03-23T09:20:01.134Z,93741.00
2024-03-23T09:21:01.153Z,93742.00
2024-03-23T09:22:01.269Z,93737.00
2024-03-23T09:23:01.296Z,93736.00
2024-03-23T09:24:01.360Z,93735.00
2024-03-23T09:25:01.460Z,93731.00
2024-03-23T09:26:01.514Z,93734.00
2024-03-23T09:27:01.568Z,93733.00
2024-03-23T09:28:01.664Z,93733.00
2024-03-23T09:29:01.717Z,93737.00
2024-03-23T09:30:01.798Z,93733.00
2024-03-23T09:31:01.852Z,93733.00
2024-03-23T09:32:01.935Z,93733.00
2024-03-23T09:33:02.004Z,93736.00
2024-03-23T09:34:02.096Z,93734.00
2024-03-23T09:35:02.140Z,93728.00
2024-03-23T09:36:02.189Z,93730.00
2024-03-23T09:37:02.247Z,93725.00
2024-03-23T09:38:02.271Z,93723.00
2024-03-23T09:39:02.286Z,93719.00
2024-03-23T09:40:02.327Z,93719.00
2024-03-23T09:41:02.348Z,93718.00
2024-03-23T09:42:02.342Z,93717.00
2024-03-23T09:43:02.348Z,93713.00
2024-03-23T09:44:02.343Z,93710.00
2024-03-23T09:45:02.368Z,93711.00
2024-03-23T09:46:02.357Z,93709.00
2024-03-23T09:47:02.360Z,93708.00
2024-03-23T09:48:02.376Z,93710.00
2024-03-23T09:49:02.365Z,93712.00
2024-03-23T09:50:02.390Z,93718.00
2024-03-23T09:51:02.377Z,93717.00
2024-03-23T09:52:02.397Z,93716.00
2024-03-23T09:53:02.409Z,93712.00
2024-03-23T09:54:02.409Z,93714.00
2024-03-23T09:55:02.439Z,93710.00
2024-03-23T09:56:02.427Z,93711.00
2024-03-23T09:57:02.440Z,93709.00
2024-03-23T09:58:02.441Z,93714.00
2024-03-23T09:59:02.448Z,93713.00
2024-03-23T10:00:02.475Z,93717.00
2024-03-23T10:01:02.488Z,93714.00
2024-03-23T10:02:02.490Z,93713.00
2024-03-23T10:03:04.630Z,93710.00
2024-03-23T10:04:02.515Z,93708.00
2024-03-23T10:05:02.510Z,93708.00
2024-03-23T10:06:02.548Z,93708.00
2024-03-23T10:07:02.522Z,93704.00
2024-03-23T10:08:02.522Z,93705.00
2024-03-23T10:09:02.513Z,93709.00
2024-03-23T10:10:02.524Z,93700.00
2024-03-23T10:11:02.527Z,93696.00
2024-03-23T10:12:02.528Z,93703.00
2024-03-23T10:13:02.523Z,93698.00
2024-03-23T10:14:02.859Z,93699.00
2024-03-23T10:15:02.547Z,93695.00
2024-03-23T10:16:02.547Z,93696.00
2024-03-23T10:17:02.534Z,93697.00
2024-03-23T10:18:02.540Z,93699.00
2024-03-23T10:19:02.543Z,93696.00
2024-03-23T10:20:02.555Z,93696.00
2024-03-23T10:21:04.837Z,93696.00
2024-03-23T10:22:02.547Z,93696.00
2024-03-23T10:23:02.567Z,93695.00
2024-03-23T10:24:02.554Z,93698.00
2024-03-23T10:25:02.557Z,93702.00
2024-03-23T10:26:02.563Z,93702.00
2024-03-23T10:27:02.556Z,93703.00
2024-03-23T10:28:02.578Z,93702.00
2024-03-23T10:29:02.574Z,93705.00
2024-03-23T10:30:02.570Z,93699.00
2024-03-23T10:31:02.593Z,93703.00
2024-03-23T10:32:02.618Z,93700.00
2024-03-23T10:33:04.075Z,93701.00
2024-03-23T10:34:02.819Z,93700.00
2024-03-23T10:35:02.858Z,93701.00
2024-03-23T10:36:02.863Z,93699.00
2024-03-23T10:37:02.894Z,93697.00
2024-03-23T10:38:02.970Z,93694.00
2024-03-23T10:39:05.512Z,93691.00
2024-03-23T10:40:03.959Z,93696.00
2024-03-23T10:41:02.960Z,93685.00
2024-03-23T10:42:02.958Z,93690.00
2024-03-23T10:43:02.967Z,93683.00
2024-03-23T10:44:02.945Z,93679.00
2024-03-23T10:45:02.983Z,93690.00
2024-03-23T10:46:02.962Z,93684.00
2024-03-23T10:47:02.955Z,93682.00
2024-03-23T10:48:02.953Z,93683.00
2024-03-23T10:49:02.956Z,93669.00
2024-03-23T10:50:02.961Z,93676.00
2024-03-23T10:51:05.290Z,93665.00
2024-03-23T10:52:02.971Z,93663.00
2024-03-23T10:53:02.963Z,93664.00
2024-03-23T10:54:02.966Z,93666.00
2024-03-23T10:55:02.979Z,93667.00
2024-03-23T10:56:02.974Z,93681.00
2024-03-23T10:57:02.965Z,93681.00
2024-03-23T10:58:02.980Z,93679.00
2024-03-23T10:59:02.986Z,93683.00
2024-03-23T11:00:03.015Z,93682.00
2024-03-23T11:01:02.984Z,93677.00
2024-03-23T11:02:02.986Z,93684.00
2024-03-23T11:03:02.982Z,93684.00
2024-03-23T11:04:02.984Z,93684.00
2024-03-23T11:05:02.990Z,93686.00
2024-03-23T11:06:02.984Z,93696.00
2024-03-23T11:07:02.991Z,93701.00
2024-03-23T11:08:02.993Z,93698.00
2024-03-23T11:09:02.990Z,93725.00
2024-03-23T11:10:03.004Z,93718.00
2024-03-23T11:11:02.991Z,93716.00
2024-03-23T11:12:02.992Z,93718.00
2024-03-23T11:13:03.008Z,93732.00
2024-03-23T11:14:03.004Z,93734.00
2024-03-23T11:15:03.024Z,93755.00
2024-03-23T11:16:03.012Z,93750.00
2024-03-23T11:17:03.008Z,93739.00
2024-03-23T11:18:03.009Z,93748.00
2024-03-23T11:19:03.008Z,93755.00
2024-03-23T11:20:03.014Z,93756.00
2024-03-23T11:21:02.998Z,93755.00
2024-03-23T11:22:03.128Z,93753.00
2024-03-23T11:23:03.003Z,93758.00
2024-03-23T11:24:03.006Z,93751.00
2024-03-23T11:25:03.001Z,93759.00
2024-03-23T11:26:03.016Z,93757.00
2024-03-23T11:27:03.027Z,93759.00
2024-03-23T11:28:03.032Z,93768.00
2024-03-23T11:29:02.999Z,93773.00
2024-03-23T11:30:03.041Z,93777.00
2024-03-23T11:31:03.005Z,93785.00
2024-03-23T11:32:03.019Z,93799.00
2024-03-23T11:33:03.037Z,93803.00
2024-03-23T11:34:03.107Z,93795.00
2024-03-23T11:35:03.200Z,93788.00
2024-03-23T11:36:03.269Z,93794.00
2024-03-23T11:37:03.324Z,93812.00
2024-03-23T11:38:03.373Z,93817.00
2024-03-23T11:39:03.429Z,93831.00
2024-03-23T11:40:03.518Z,93837.00
2024-03-23T11:41:03.573Z,93843.00
2024-03-23T11:42:03.642Z,93839.00
2024-03-23T11:43:03.710Z,93850.00
2024-03-23T11:44:03.770Z,93863.00
2024-03-23T11:45:03.879Z,93846.00